sensor_id;sensor_type;location;lat;lon;timestamp;pressure;altitude;pressure_sealevel;temperature;humidity
69848;BME280;57143;55.940;37.496;2023-01-28T00:01:26;98152.28;;;-2.10;100.00
69848;BME280;57143;55.940;37.496;2023-01-28T00:03:54;98165.53;;;-2.02;100.00
69848;BME280;57143;55.940;37.496;2023-01-28T00:06:21;98154.78;;;-2.09;100.00
69848;BME280;57143;55.940;37.496;2023-01-28T00:08:48;98150.34;;;-2.16;100.00
69848;BME280;57143;55.940;37.496;2023-01-28T00:11:15;98152.47;;;-2.12;100.00
69848;BME280;57143;55.940;37.496;2023-01-28T00:13:42;98158.78;;;-2.13;100.00
69848;BME280;57143;55.940;37.496;2023-01-28T00:16:11;98160.31;;;-2.18;100.00
69848;BME280;57143;55.940;37.496;2023-01-28T00:18:38;98168.63;;;-2.21;100.00
69848;BME280;57143;55.940;37.496;2023-01-28T00:21:07;98157.25;;;-2.38;100.00
69848;BME280;57143;55.940;37.496;2023-01-28T00:23:35;98174.84;;;-2.37;100.00
69848;BME280;57143;55.940;37.496;2023-01-28T00:26:04;98209.69;;;-2.40;100.00
69848;BME280;57143;55.940;37.496;2023-01-28T00:28:32;98208.69;;;-2.39;100.00
69848;BME280;57143;55.940;37.496;2023-01-28T00:31:05;98203.06;;;-2.44;100.00
69848;BME280;57143;55.940;37.496;2023-01-28T00:33:36;98213.19;;;-2.48;100.00
69848;BME280;57143;55.940;37.496;2023-01-28T00:36:04;98206.88;;;-2.47;100.00
69848;BME280;57143;55.940;37.496;2023-01-28T00:38:32;98214.34;;;-2.42;100.00
69848;BME280;57143;55.940;37.496;2023-01-28T00:41:06;98207.72;;;-2.46;100.00
69848;BME280;57143;55.940;37.496;2023-01-28T00:43:34;98215.00;;;-2.48;100.00
69848;BME280;57143;55.940;37.496;2023-01-28T00:46:02;98214.16;;;-2.41;100.00
69848;BME280;57143;55.940;37.496;2023-01-28T00:48:29;98221.09;;;-2.40;100.00
69848;BME280;57143;55.940;37.496;2023-01-28T00:50:58;98199.06;;;-2.40;100.00
69848;BME280;57143;55.940;37.496;2023-01-28T00:53:25;98188.09;;;-2.68;100.00
69848;BME280;57143;55.940;37.496;2023-01-28T00:55:52;98204.09;;;-2.53;100.00
69848;BME280;57143;55.940;37.496;2023-01-28T00:58:20;98211.56;;;-2.49;100.00
69848;BME280;57143;55.940;37.496;2023-01-28T01:00:48;98214.69;;;-2.53;100.00
69848;BME280;57143;55.940;37.496;2023-01-28T01:03:16;98205.91;;;-2.54;100.00
69848;BME280;57143;55.940;37.496;2023-01-28T01:05:43;98219.34;;;-2.47;100.00
69848;BME280;57143;55.940;37.496;2023-01-28T01:08:12;98215.41;;;-2.59;100.00
69848;BME280;57143;55.940;37.496;2023-01-28T01:10:39;98237.06;;;-2.48;100.00
69848;BME280;57143;55.940;37.496;2023-01-28T01:13:07;98222.00;;;-2.55;100.00
69848;BME280;57143;55.940;37.496;2023-01-28T01:15:34;98231.44;;;-2.53;100.00
69848;BME280;57143;55.940;37.496;2023-01-28T01:18:01;98232.59;;;-2.55;100.00
69848;BME280;57143;55.940;37.496;2023-01-28T01:20:29;98219.03;;;-2.52;100.00
69848;BME280;57143;55.940;37.496;2023-01-28T01:22:58;98200.97;;;-2.57;100.00
69848;BME280;57143;55.940;37.496;2023-01-28T01:25:26;98228.31;;;-2.56;100.00
69848;BME280;57143;55.940;37.496;2023-01-28T01:27:53;98223.13;;;-2.50;100.00
69848;BME280;57143;55.940;37.496;2023-01-28T01:30:20;98221.63;;;-2.44;100.00
69848;BME280;57143;55.940;37.496;2023-01-28T01:32:48;98211.16;;;-2.38;100.00
69848;BME280;57143;55.940;37.496;2023-01-28T01:35:15;98212.50;;;-2.42;100.00
69848;BME280;57143;55.940;37.496;2023-01-28T01:37:42;98216.50;;;-2.46;100.00
69848;BME280;57143;55.940;37.496;2023-01-28T01:40:11;98207.28;;;-2.58;100.00
69848;BME280;57143;55.940;37.496;2023-01-28T01:42:39;98233.47;;;-2.63;100.00
69848;BME280;57143;55.940;37.496;2023-01-28T01:45:10;98201.47;;;-2.61;100.00
69848;BME280;57143;55.940;37.496;2023-01-28T01:47:42;98104.72;;;-3.04;100.00
69848;BME280;57143;55.940;37.496;2023-01-28T01:50:16;98172.84;;;-2.74;100.00
69848;BME280;57143;55.940;37.496;2023-01-28T01:52:45;98191.06;;;-2.63;100.00
69848;BME280;57143;55.940;37.496;2023-01-28T01:55:17;98203.44;;;-2.55;100.00
69848;BME280;57143;55.940;37.496;2023-01-28T01:57:47;98204.41;;;-2.48;100.00
69848;BME280;57143;55.940;37.496;2023-01-28T02:00:16;98205.91;;;-2.46;100.00
69848;BME280;57143;55.940;37.496;2023-01-28T02:02:45;98205.94;;;-2.62;100.00
69848;BME280;57143;55.940;37.496;2023-01-28T02:05:15;98226.00;;;-2.59;100.00
69848;BME280;57143;55.940;37.496;2023-01-28T02:07:44;98227.03;;;-2.68;100.00
69848;BME280;57143;55.940;37.496;2023-01-28T02:10:12;98214.91;;;-2.63;100.00
69848;BME280;57143;55.940;37.496;2023-01-28T02:12:42;98202.19;;;-2.75;100.00
69848;BME280;57143;55.940;37.496;2023-01-28T02:15:16;98234.31;;;-2.70;100.00
69848;BME280;57143;55.940;37.496;2023-01-28T02:17:45;98230.19;;;-2.73;100.00
69848;BME280;57143;55.940;37.496;2023-01-28T02:20:18;98225.03;;;-2.74;100.00
69848;BME280;57143;55.940;37.496;2023-01-28T02:23:23;98229.00;;;-2.70;100.00
69848;BME280;57143;55.940;37.496;2023-01-28T02:26:25;98209.66;;;-2.79;100.00
69848;BME280;57143;55.940;37.496;2023-01-28T02:29:04;98231.19;;;-2.74;100.00
69848;BME280;57143;55.940;37.496;2023-01-28T02:31:39;98234.88;;;-2.91;100.00
69848;BME280;57143;55.940;37.496;2023-01-28T02:34:17;98214.78;;;-2.77;100.00
69848;BME280;57143;55.940;37.496;2023-01-28T02:36:50;98237.00;;;-2.78;100.00
69848;BME280;57143;55.940;37.496;2023-01-28T02:39:23;98229.88;;;-2.86;100.00
69848;BME280;57143;55.940;37.496;2023-01-28T02:41:55;98245.81;;;-2.94;100.00
69848;BME280;57143;55.940;37.496;2023-01-28T02:44:24;98227.06;;;-2.84;100.00
69848;BME280;57143;55.940;37.496;2023-01-28T02:46:52;98237.66;;;-2.84;100.00
69848;BME280;57143;55.940;37.496;2023-01-28T02:49:39;98166.03;;;-3.31;100.00
69848;BME280;57143;55.940;37.496;2023-01-28T02:52:21;98223.25;;;-2.82;100.00
69848;BME280;57143;55.940;37.496;2023-01-28T02:55:17;98242.00;;;-2.83;100.00
69848;BME280;57143;55.940;37.496;2023-01-28T02:57:54;98259.03;;;-2.86;100.00
69848;BME280;57143;55.940;37.496;2023-01-28T03:00:31;98258.69;;;-2.83;100.00
69848;BME280;57143;55.940;37.496;2023-01-28T03:03:07;98262.69;;;-2.87;100.00
69848;BME280;57143;55.940;37.496;2023-01-28T03:05:39;98272.31;;;-2.94;100.00
69848;BME280;57143;55.940;37.496;2023-01-28T03:08:23;98291.03;;;-2.95;100.00
69848;BME280;57143;55.940;37.496;2023-01-28T03:11:08;98286.25;;;-3.08;100.00
69848;BME280;57143;55.940;37.496;2023-01-28T03:13:52;98321.19;;;-3.04;100.00
69848;BME280;57143;55.940;37.496;2023-01-28T03:16:38;98331.28;;;-3.08;100.00
69848;BME280;57143;55.940;37.496;2023-01-28T03:19:23;98352.31;;;-2.98;100.00
69848;BME280;57143;55.940;37.496;2023-01-28T03:22:07;98327.28;;;-3.12;100.00
69848;BME280;57143;55.940;37.496;2023-01-28T03:24:52;98384.59;;;-3.19;100.00
69848;BME280;57143;55.940;37.496;2023-01-28T03:27:41;98392.19;;;-3.24;100.00
69848;BME280;57143;55.940;37.496;2023-01-28T03:30:33;98395.19;;;-3.27;100.00
69848;BME280;57143;55.940;37.496;2023-01-28T03:33:22;98401.09;;;-3.33;100.00
69848;BME280;57143;55.940;37.496;2023-01-28T03:36:08;98430.25;;;-3.33;100.00
69848;BME280;57143;55.940;37.496;2023-01-28T03:38:53;98442.34;;;-3.30;100.00
69848;BME280;57143;55.940;37.496;2023-01-28T03:41:22;98479.28;;;-3.29;100.00
69848;BME280;57143;55.940;37.496;2023-01-28T03:43:50;98485.41;;;-3.28;100.00
69848;BME280;57143;55.940;37.496;2023-01-28T03:46:18;98487.59;;;-3.58;100.00
69848;BME280;57143;55.940;37.496;2023-01-28T03:48:45;98507.94;;;-3.58;100.00
69848;BME280;57143;55.940;37.496;2023-01-28T03:51:12;98514.03;;;-3.66;100.00
69848;BME280;57143;55.940;37.496;2023-01-28T03:53:41;98542.09;;;-3.73;100.00
69848;BME280;57143;55.940;37.496;2023-01-28T03:56:08;98534.25;;;-3.90;100.00
69848;BME280;57143;55.940;37.496;2023-01-28T03:58:43;98530.28;;;-3.86;100.00
69848;BME280;57143;55.940;37.496;2023-01-28T04:01:18;98536.19;;;-3.67;100.00
69848;BME280;57143;55.940;37.496;2023-01-28T04:03:46;98527.53;;;-3.77;100.00
69848;BME280;57143;55.940;37.496;2023-01-28T04:06:14;98539.84;;;-3.68;100.00
69848;BME280;57143;55.940;37.496;2023-01-28T04:08:41;98546.13;;;-3.69;100.00
69848;BME280;57143;55.940;37.496;2023-01-28T04:11:13;98562.63;;;-3.75;100.00
69848;BME280;57143;55.940;37.496;2023-01-28T04:13:45;98569.53;;;-3.82;100.00
69848;BME280;57143;55.940;37.496;2023-01-28T04:16:14;98573.78;;;-3.89;100.00
69848;BME280;57143;55.940;37.496;2023-01-28T04:18:41;98557.09;;;-3.81;100.00
69848;BME280;57143;55.940;37.496;2023-01-28T04:21:10;98517.22;;;-4.13;100.00
69848;BME280;57143;55.940;37.496;2023-01-28T04:23:37;98570.66;;;-3.84;100.00
69848;BME280;57143;55.940;37.496;2023-01-28T04:26:04;98568.84;;;-4.09;100.00
69848;BME280;57143;55.940;37.496;2023-01-28T04:28:32;98541.94;;;-3.97;100.00
69848;BME280;57143;55.940;37.496;2023-01-28T04:30:59;98554.00;;;-4.02;100.00
69848;BME280;57143;55.940;37.496;2023-01-28T04:33:26;98568.13;;;-3.94;100.00
69848;BME280;57143;55.940;37.496;2023-01-28T04:35:53;98539.78;;;-3.76;100.00
69848;BME280;57143;55.940;37.496;2023-01-28T04:38:21;98527.63;;;-3.61;100.00
69848;BME280;57143;55.940;37.496;2023-01-28T04:40:49;98510.56;;;-3.66;100.00
69848;BME280;57143;55.940;37.496;2023-01-28T04:43:17;98484.03;;;-3.74;100.00
69848;BME280;57143;55.940;37.496;2023-01-28T04:45:45;98532.78;;;-3.85;100.00
69848;BME280;57143;55.940;37.496;2023-01-28T04:48:12;98551.94;;;-3.91;100.00
69848;BME280;57143;55.940;37.496;2023-01-28T04:50:40;98537.25;;;-3.85;100.00
69848;BME280;57143;55.940;37.496;2023-01-28T04:53:07;98546.78;;;-3.67;100.00
69848;BME280;57143;55.940;37.496;2023-01-28T04:55:36;98550.94;;;-3.64;100.00
69848;BME280;57143;55.940;37.496;2023-01-28T04:58:03;98562.59;;;-4.00;100.00
69848;BME280;57143;55.940;37.496;2023-01-28T05:00:30;98568.44;;;-3.71;100.00
69848;BME280;57143;55.940;37.496;2023-01-28T05:02:57;98562.34;;;-3.64;100.00
69848;BME280;57143;55.940;37.496;2023-01-28T05:05:24;98568.69;;;-3.57;100.00
69848;BME280;57143;55.940;37.496;2023-01-28T05:07:52;98586.75;;;-3.78;100.00
69848;BME280;57143;55.940;37.496;2023-01-28T05:10:20;98588.25;;;-3.75;100.00
69848;BME280;57143;55.940;37.496;2023-01-28T05:12:48;98603.19;;;-3.92;100.00
69848;BME280;57143;55.940;37.496;2023-01-28T05:15:16;98606.97;;;-3.94;100.00
69848;BME280;57143;55.940;37.496;2023-01-28T05:17:44;98584.16;;;-3.95;100.00
69848;BME280;57143;55.940;37.496;2023-01-28T05:20:12;98584.16;;;-3.95;100.00
69848;BME280;57143;55.940;37.496;2023-01-28T05:22:40;98594.03;;;-3.80;100.00
69848;BME280;57143;55.940;37.496;2023-01-28T05:25:09;98593.72;;;-3.77;100.00
69848;BME280;57143;55.940;37.496;2023-01-28T05:27:36;98606.28;;;-3.96;100.00
69848;BME280;57143;55.940;37.496;2023-01-28T05:30:06;98600.69;;;-3.93;100.00
69848;BME280;57143;55.940;37.496;2023-01-28T05:32:33;98567.59;;;-3.97;100.00
69848;BME280;57143;55.940;37.496;2023-01-28T05:35:01;98599.00;;;-4.02;100.00
69848;BME280;57143;55.940;37.496;2023-01-28T05:37:28;98587.34;;;-4.09;100.00
69848;BME280;57143;55.940;37.496;2023-01-28T05:39:56;98576.88;;;-3.93;100.00
69848;BME280;57143;55.940;37.496;2023-01-28T05:42:23;98591.41;;;-3.97;100.00
69848;BME280;57143;55.940;37.496;2023-01-28T05:44:50;98570.94;;;-4.13;100.00
69848;BME280;57143;55.940;37.496;2023-01-28T05:47:18;98585.81;;;-4.12;100.00
69848;BME280;57143;55.940;37.496;2023-01-28T05:49:45;98587.88;;;-4.06;100.00
69848;BME280;57143;55.940;37.496;2023-01-28T05:52:12;98578.75;;;-3.86;100.00
69848;BME280;57143;55.940;37.496;2023-01-28T05:54:39;98582.78;;;-3.82;100.00
69848;BME280;57143;55.940;37.496;2023-01-28T05:57:07;98581.44;;;-3.78;100.00
69848;BME280;57143;55.940;37.496;2023-01-28T05:59:34;98570.63;;;-3.92;100.00
69848;BME280;57143;55.940;37.496;2023-01-28T06:02:01;98573.34;;;-3.76;100.00
69848;BME280;57143;55.940;37.496;2023-01-28T06:04:29;98566.25;;;-3.76;100.00
69848;BME280;57143;55.940;37.496;2023-01-28T06:06:56;98563.16;;;-3.71;100.00
69848;BME280;57143;55.940;37.496;2023-01-28T06:09:24;98565.38;;;-3.59;100.00
69848;BME280;57143;55.940;37.496;2023-01-28T06:11:51;98558.88;;;-3.64;100.00
69848;BME280;57143;55.940;37.496;2023-01-28T06:14:18;98566.72;;;-3.55;100.00
69848;BME280;57143;55.940;37.496;2023-01-28T06:16:45;98580.28;;;-3.58;100.00
69848;BME280;57143;55.940;37.496;2023-01-28T06:19:12;98592.63;;;-3.66;100.00
69848;BME280;57143;55.940;37.496;2023-01-28T06:21:40;98588.06;;;-3.56;100.00
69848;BME280;57143;55.940;37.496;2023-01-28T06:24:08;98590.94;;;-3.41;100.00
69848;BME280;57143;55.940;37.496;2023-01-28T06:26:35;98580.31;;;-3.49;100.00
69848;BME280;57143;55.940;37.496;2023-01-28T06:29:02;98602.94;;;-3.55;100.00
69848;BME280;57143;55.940;37.496;2023-01-28T06:31:29;98610.91;;;-3.55;100.00
69848;BME280;57143;55.940;37.496;2023-01-28T06:33:57;98639.88;;;-3.54;100.00
69848;BME280;57143;55.940;37.496;2023-01-28T06:36:24;98620.53;;;-3.54;100.00
69848;BME280;57143;55.940;37.496;2023-01-28T06:38:53;98639.50;;;-3.33;100.00
69848;BME280;57143;55.940;37.496;2023-01-28T06:41:20;98639.09;;;-3.46;100.00
69848;BME280;57143;55.940;37.496;2023-01-28T06:43:47;98660.09;;;-3.27;100.00
69848;BME280;57143;55.940;37.496;2023-01-28T06:46:14;98660.03;;;-3.35;100.00
69848;BME280;57143;55.940;37.496;2023-01-28T06:48:42;98668.22;;;-3.20;100.00
69848;BME280;57143;55.940;37.496;2023-01-28T06:51:09;98674.25;;;-3.36;100.00
69848;BME280;57143;55.940;37.496;2023-01-28T06:53:36;98697.78;;;-3.33;100.00
69848;BME280;57143;55.940;37.496;2023-01-28T06:56:05;98702.72;;;-3.38;100.00
69848;BME280;57143;55.940;37.496;2023-01-28T06:58:33;98667.69;;;-3.75;100.00
69848;BME280;57143;55.940;37.496;2023-01-28T07:01:00;98731.63;;;-3.44;100.00
69848;BME280;57143;55.940;37.496;2023-01-28T07:03:28;98758.06;;;-3.70;100.00
69848;BME280;57143;55.940;37.496;2023-01-28T07:05:55;98749.72;;;-3.75;100.00
69848;BME280;57143;55.940;37.496;2023-01-28T07:08:22;98766.66;;;-3.86;100.00
69848;BME280;57143;55.940;37.496;2023-01-28T07:10:49;98780.75;;;-3.85;100.00
69848;BME280;57143;55.940;37.496;2023-01-28T07:13:18;98783.00;;;-3.90;100.00
69848;BME280;57143;55.940;37.496;2023-01-28T07:15:45;98793.06;;;-3.94;100.00
69848;BME280;57143;55.940;37.496;2023-01-28T07:18:13;98800.88;;;-4.02;100.00
69848;BME280;57143;55.940;37.496;2023-01-28T07:20:40;98770.88;;;-3.93;100.00
69848;BME280;57143;55.940;37.496;2023-01-28T07:23:07;98775.53;;;-3.77;100.00
69848;BME280;57143;55.940;37.496;2023-01-28T07:25:35;98768.13;;;-3.56;100.00
69848;BME280;57143;55.940;37.496;2023-01-28T07:28:02;98797.38;;;-3.75;100.00
69848;BME280;57143;55.940;37.496;2023-01-28T07:30:30;98801.41;;;-3.71;100.00
69848;BME280;57143;55.940;37.496;2023-01-28T07:32:58;98801.59;;;-3.82;100.00
69848;BME280;57143;55.940;37.496;2023-01-28T07:35:26;98795.31;;;-3.99;100.00
69848;BME280;57143;55.940;37.496;2023-01-28T07:37:53;98797.03;;;-3.90;100.00
69848;BME280;57143;55.940;37.496;2023-01-28T07:40:21;98826.84;;;-3.88;100.00
69848;BME280;57143;55.940;37.496;2023-01-28T07:42:48;98795.97;;;-3.70;100.00
69848;BME280;57143;55.940;37.496;2023-01-28T07:45:15;98812.13;;;-3.73;100.00
69848;BME280;57143;55.940;37.496;2023-01-28T07:47:44;98816.81;;;-3.67;100.00
69848;BME280;57143;55.940;37.496;2023-01-28T07:50:11;98816.88;;;-3.94;100.00
69848;BME280;57143;55.940;37.496;2023-01-28T07:52:38;98824.53;;;-3.73;100.00
69848;BME280;57143;55.940;37.496;2023-01-28T07:55:09;98826.00;;;-3.88;100.00
69848;BME280;57143;55.940;37.496;2023-01-28T07:57:47;98841.69;;;-3.77;100.00
69848;BME280;57143;55.940;37.496;2023-01-28T08:00:15;98823.13;;;-3.95;100.00
69848;BME280;57143;55.940;37.496;2023-01-28T08:02:44;98848.13;;;-3.62;100.00
69848;BME280;57143;55.940;37.496;2023-01-28T08:05:15;98839.00;;;-3.50;100.00
69848;BME280;57143;55.940;37.496;2023-01-28T08:07:42;98842.09;;;-3.55;100.00
69848;BME280;57143;55.940;37.496;2023-01-28T08:10:10;98853.69;;;-3.56;100.00
69848;BME280;57143;55.940;37.496;2023-01-28T08:12:39;98847.63;;;-3.48;100.00
69848;BME280;57143;55.940;37.496;2023-01-28T08:15:07;98859.22;;;-3.49;100.00
69848;BME280;57143;55.940;37.496;2023-01-28T08:17:34;98868.16;;;-3.32;100.00
69848;BME280;57143;55.940;37.496;2023-01-28T08:20:03;98875.97;;;-3.76;100.00
69848;BME280;57143;55.940;37.496;2023-01-28T08:22:31;98868.75;;;-3.56;100.00
69848;BME280;57143;55.940;37.496;2023-01-28T08:24:58;98881.75;;;-3.45;100.00
69848;BME280;57143;55.940;37.496;2023-01-28T08:27:26;98893.69;;;-3.59;100.00
69848;BME280;57143;55.940;37.496;2023-01-28T08:29:53;98902.16;;;-3.55;100.00
69848;BME280;57143;55.940;37.496;2023-01-28T08:32:20;98887.78;;;-3.70;100.00
69848;BME280;57143;55.940;37.496;2023-01-28T08:34:47;98902.88;;;-3.35;100.00
69848;BME280;57143;55.940;37.496;2023-01-28T08:37:16;98927.16;;;-3.58;100.00
69848;BME280;57143;55.940;37.496;2023-01-28T08:39:45;98905.84;;;-3.66;100.00
69848;BME280;57143;55.940;37.496;2023-01-28T08:42:12;98908.13;;;-3.43;100.00
69848;BME280;57143;55.940;37.496;2023-01-28T08:44:39;98925.97;;;-3.45;100.00
69848;BME280;57143;55.940;37.496;2023-01-28T08:47:06;98928.59;;;-3.73;100.00
69848;BME280;57143;55.940;37.496;2023-01-28T08:49:34;98925.84;;;-3.54;100.00
69848;BME280;57143;55.940;37.496;2023-01-28T08:52:01;98926.03;;;-3.37;100.00
69848;BME280;57143;55.940;37.496;2023-01-28T08:54:29;98885.13;;;-3.70;100.00
69848;BME280;57143;55.940;37.496;2023-01-28T08:56:57;98918.25;;;-3.39;100.00
69848;BME280;57143;55.940;37.496;2023-01-28T08:59:24;98929.88;;;-3.49;100.00
69848;BME280;57143;55.940;37.496;2023-01-28T09:01:51;98908.41;;;-3.74;100.00
69848;BME280;57143;55.940;37.496;2023-01-28T09:04:18;98959.56;;;-3.46;100.00
69848;BME280;57143;55.940;37.496;2023-01-28T09:06:45;98952.84;;;-3.40;100.00
69848;BME280;57143;55.940;37.496;2023-01-28T09:09:12;98953.22;;;-3.35;100.00
69848;BME280;57143;55.940;37.496;2023-01-28T09:11:41;98899.63;;;-3.47;100.00
69848;BME280;57143;55.940;37.496;2023-01-28T09:14:08;98942.56;;;-3.08;100.00
69848;BME280;57143;55.940;37.496;2023-01-28T09:16:35;98953.78;;;-3.14;100.00
69848;BME280;57143;55.940;37.496;2023-01-28T09:19:02;98942.47;;;-3.34;100.00
69848;BME280;57143;55.940;37.496;2023-01-28T09:21:29;98977.44;;;-3.30;100.00
69848;BME280;57143;55.940;37.496;2023-01-28T09:23:57;98977.94;;;-3.44;100.00
69848;BME280;57143;55.940;37.496;2023-01-28T09:26:24;98973.84;;;-3.12;100.00
69848;BME280;57143;55.940;37.496;2023-01-28T09:28:52;98983.63;;;-3.12;100.00
69848;BME280;57143;55.940;37.496;2023-01-28T09:31:20;98976.88;;;-3.07;100.00
69848;BME280;57143;55.940;37.496;2023-01-28T09:33:48;98984.81;;;-3.07;100.00
69848;BME280;57143;55.940;37.496;2023-01-28T09:36:21;98974.25;;;-2.89;100.00
69848;BME280;57143;55.940;37.496;2023-01-28T09:38:48;98979.63;;;-2.81;100.00
69848;BME280;57143;55.940;37.496;2023-01-28T09:41:24;98992.97;;;-2.91;100.00
69848;BME280;57143;55.940;37.496;2023-01-28T09:44:12;98947.34;;;-3.12;100.00
69848;BME280;57143;55.940;37.496;2023-01-28T09:46:47;98993.13;;;-2.75;100.00
69848;BME280;57143;55.940;37.496;2023-01-28T09:49:19;98973.25;;;-2.71;100.00
69848;BME280;57143;55.940;37.496;2023-01-28T09:51:49;98997.66;;;-2.67;100.00
69848;BME280;57143;55.940;37.496;2023-01-28T09:54:29;98865.78;;;-3.53;100.00
69848;BME280;57143;55.940;37.496;2023-01-28T09:57:02;98997.81;;;-2.69;100.00
69848;BME280;57143;55.940;37.496;2023-01-28T09:59:34;99017.06;;;-2.67;100.00
69848;BME280;57143;55.940;37.496;2023-01-28T10:02:23;99030.84;;;-2.63;100.00
69848;BME280;57143;55.940;37.496;2023-01-28T10:04:58;99033.13;;;-2.68;100.00
69848;BME280;57143;55.940;37.496;2023-01-28T10:07:35;99005.84;;;-2.96;100.00
69848;BME280;57143;55.940;37.496;2023-01-28T10:10:10;99049.09;;;-2.78;100.00
69848;BME280;57143;55.940;37.496;2023-01-28T10:12:50;99067.75;;;-2.97;100.00
69848;BME280;57143;55.940;37.496;2023-01-28T10:15:40;99071.75;;;-2.83;100.00
69848;BME280;57143;55.940;37.496;2023-01-28T10:18:12;99089.72;;;-3.04;100.00
69848;BME280;57143;55.940;37.496;2023-01-28T10:20:42;99087.78;;;-3.12;100.00
69848;BME280;57143;55.940;37.496;2023-01-28T10:23:15;99093.63;;;-3.08;100.00
69848;BME280;57143;55.940;37.496;2023-01-28T10:25:45;99075.88;;;-2.98;100.00
69848;BME280;57143;55.940;37.496;2023-01-28T10:28:18;99067.13;;;-3.08;100.00
69848;BME280;57143;55.940;37.496;2023-01-28T10:30:49;99085.28;;;-2.86;100.00
69848;BME280;57143;55.940;37.496;2023-01-28T10:33:21;99079.88;;;-2.85;100.00
69848;BME280;57143;55.940;37.496;2023-01-28T10:35:49;99076.06;;;-2.82;100.00
69848;BME280;57143;55.940;37.496;2023-01-28T10:38:23;99050.69;;;-2.85;100.00
69848;BME280;57143;55.940;37.496;2023-01-28T10:40:52;99040.31;;;-2.78;100.00
69848;BME280;57143;55.940;37.496;2023-01-28T10:43:24;99059.94;;;-2.54;100.00
69848;BME280;57143;55.940;37.496;2023-01-28T10:45:56;98961.44;;;-3.11;100.00
69848;BME280;57143;55.940;37.496;2023-01-28T10:48:28;99087.09;;;-2.60;100.00
69848;BME280;57143;55.940;37.496;2023-01-28T10:50:56;99077.25;;;-2.50;100.00
69848;BME280;57143;55.940;37.496;2023-01-28T10:53:34;99069.97;;;-2.48;100.00
69848;BME280;57143;55.940;37.496;2023-01-28T10:56:02;99027.09;;;-2.61;100.00
69848;BME280;57143;55.940;37.496;2023-01-28T10:58:33;99074.75;;;-2.51;100.00
69848;BME280;57143;55.940;37.496;2023-01-28T11:01:05;99083.91;;;-2.46;100.00
69848;BME280;57143;55.940;37.496;2023-01-28T11:03:33;99090.44;;;-2.40;100.00
69848;BME280;57143;55.940;37.496;2023-01-28T11:06:01;99051.38;;;-2.65;100.00
69848;BME280;57143;55.940;37.496;2023-01-28T11:08:29;99091.59;;;-2.25;100.00
69848;BME280;57143;55.940;37.496;2023-01-28T11:10:57;99087.34;;;-2.18;100.00
69848;BME280;57143;55.940;37.496;2023-01-28T11:13:26;99114.09;;;-2.29;100.00
69848;BME280;57143;55.940;37.496;2023-01-28T11:15:58;99123.34;;;-2.51;100.00
69848;BME280;57143;55.940;37.496;2023-01-28T11:18:30;99076.28;;;-2.76;100.00
69848;BME280;57143;55.940;37.496;2023-01-28T11:21:00;99126.50;;;-2.29;100.00
69848;BME280;57143;55.940;37.496;2023-01-28T11:23:30;99121.63;;;-2.24;100.00
69848;BME280;57143;55.940;37.496;2023-01-28T11:26:03;99108.63;;;-2.27;100.00
69848;BME280;57143;55.940;37.496;2023-01-28T11:28:31;99124.88;;;-2.13;100.00
69848;BME280;57143;55.940;37.496;2023-01-28T11:31:01;99132.34;;;-2.26;100.00
69848;BME280;57143;55.940;37.496;2023-01-28T11:33:36;99127.00;;;-2.16;100.00
69848;BME280;57143;55.940;37.496;2023-01-28T11:36:06;99112.72;;;-2.78;100.00
69848;BME280;57143;55.940;37.496;2023-01-28T11:38:34;99144.31;;;-2.40;100.00
69848;BME280;57143;55.940;37.496;2023-01-28T11:41:01;99126.94;;;-2.24;100.00
69848;BME280;57143;55.940;37.496;2023-01-28T11:43:30;99094.53;;;-2.28;100.00
69848;BME280;57143;55.940;37.496;2023-01-28T11:46:07;99127.38;;;-2.11;100.00
69848;BME280;57143;55.940;37.496;2023-01-28T11:48:53;99116.81;;;-2.03;100.00
69848;BME280;57143;55.940;37.496;2023-01-28T11:51:32;98958.72;;;-3.19;100.00
69848;BME280;57143;55.940;37.496;2023-01-28T11:54:25;99131.06;;;-2.40;100.00
69848;BME280;57143;55.940;37.496;2023-01-28T11:57:15;99114.63;;;-2.25;100.00
69848;BME280;57143;55.940;37.496;2023-01-28T12:00:03;99130.66;;;-2.17;100.00
69848;BME280;57143;55.940;37.496;2023-01-28T12:02:49;99128.13;;;-2.37;100.00
69848;BME280;57143;55.940;37.496;2023-01-28T12:05:43;99094.34;;;-2.62;100.00
69848;BME280;57143;55.940;37.496;2023-01-28T12:08:19;99156.97;;;-2.51;100.00
69848;BME280;57143;55.940;37.496;2023-01-28T12:13:47;99124.53;;;-2.63;100.00
69848;BME280;57143;55.940;37.496;2023-01-28T12:16:30;99088.97;;;-2.97;100.00
69848;BME280;57143;55.940;37.496;2023-01-28T12:19:15;99161.66;;;-2.63;100.00
69848;BME280;57143;55.940;37.496;2023-01-28T12:22:09;99122.00;;;-2.91;100.00
69848;BME280;57143;55.940;37.496;2023-01-28T12:24:54;99155.56;;;-2.73;100.00
69848;BME280;57143;55.940;37.496;2023-01-28T12:27:35;99138.69;;;-2.81;100.00
69848;BME280;57143;55.940;37.496;2023-01-28T12:30:16;99111.69;;;-2.85;100.00
69848;BME280;57143;55.940;37.496;2023-01-28T12:32:56;99138.19;;;-2.85;100.00
69848;BME280;57143;55.940;37.496;2023-01-28T12:35:43;99098.75;;;-2.97;100.00
69848;BME280;57143;55.940;37.496;2023-01-28T12:38:23;99122.44;;;-2.69;100.00
69848;BME280;57143;55.940;37.496;2023-01-28T12:41:00;99113.38;;;-2.93;100.00
69848;BME280;57143;55.940;37.496;2023-01-28T12:43:44;99080.09;;;-2.78;100.00
69848;BME280;57143;55.940;37.496;2023-01-28T12:46:22;99093.47;;;-2.53;100.00
69848;BME280;57143;55.940;37.496;2023-01-28T12:48:54;99075.34;;;-2.57;100.00
69848;BME280;57143;55.940;37.496;2023-01-28T12:51:27;99098.38;;;-2.58;100.00
69848;BME280;57143;55.940;37.496;2023-01-28T12:54:01;99024.47;;;-2.88;100.00
69848;BME280;57143;55.940;37.496;2023-01-28T12:56:34;99081.28;;;-2.46;100.00
69848;BME280;57143;55.940;37.496;2023-01-28T12:59:04;99080.28;;;-2.27;100.00
69848;BME280;57143;55.940;37.496;2023-01-28T13:01:40;99030.53;;;-2.78;100.00
69848;BME280;57143;55.940;37.496;2023-01-28T13:04:12;99048.28;;;-2.43;100.00